Time;durP1;ratioP1;P1;durP2;ratioP2;P2;SDS_P1;SDS_P2;PMS_P1;PMS_P2;Temp;Humidity;BMP_temperature;BMP_pressure;BME280_temperature;BME280_humidity;BME280_pressure;Samples;Min_cycle;Max_cycle;Signal;HPM_P1;HPM_P2
2021/09/24 00:00:30;;;;;;;17.30;4.30;;;;;;;;;;4950391;29;20497;-75
2021/09/24 00:02:55;;;;;;;13.43;3.43;;;;;;;;;;4947283;28;20187;-74
2021/09/24 00:05:21;;;;;;;19.70;4.50;;;;;;;;;;4948290;28;20742;-74
2021/09/24 00:07:46;;;;;;;15.37;4.10;;;;;;;;;;4947639;28;20198;-73
2021/09/24 00:10:12;;;;;;;14.53;3.67;;;;;;;;;;4949201;28;20187;-72
2021/09/24 00:12:38;;;;;;;20.60;4.07;;;;;;;;;;4950272;29;20214;-74
2021/09/24 00:15:05;;;;;;;17.47;3.73;;;;;;;;;;4950068;29;20881;-74
2021/09/24 00:17:30;;;;;;;12.53;3.57;;;;;;;;;;4950778;28;20426;-74
2021/09/24 00:19:55;;;;;;;18.20;3.50;;;;;;;;;;4948011;28;20958;-74
2021/09/24 00:22:21;;;;;;;18.70;4.23;;;;;;;;;;4951414;28;20642;-74
2021/09/24 00:24:46;;;;;;;8.30;2.87;;;;;;;;;;4947105;28;20204;-74
2021/09/24 00:27:11;;;;;;;19.07;4.30;;;;;;;;;;4949106;28;20189;-74
2021/09/24 00:29:36;;;;;;;13.47;3.40;;;;;;;;;;4949772;28;20195;-74
2021/09/24 00:32:02;;;;;;;11.20;3.13;;;;;;;;;;4950206;28;20187;-73
2021/09/24 00:34:27;;;;;;;20.37;4.20;;;;;;;;;;4949596;28;20203;-74
2021/09/24 00:36:53;;;;;;;13.43;3.37;;;;;;;;;;4950578;28;20234;-76
2021/09/24 00:39:18;;;;;;;21.40;4.27;;;;;;;;;;4945982;28;20261;-74
2021/09/24 00:41:43;;;;;;;11.67;3.07;;;;;;;;;;4948024;28;20173;-75
2021/09/24 00:44:08;;;;;;;11.23;3.87;;;;;;;;;;4939297;28;20207;-75
2021/09/24 00:46:34;;;;;;;15.80;3.00;;;;;;;;;;4937362;28;20191;-73
2021/09/24 00:48:59;;;;;;;23.00;3.57;;;;;;;;;;4946334;28;20185;-75
2021/09/24 00:51:24;;;;;;;11.43;3.37;;;;;;;;;;4948530;28;20592;-73
2021/09/24 00:53:50;;;;;;;17.20;3.63;;;;;;;;;;4949863;28;20307;-75
2021/09/24 00:56:15;;;;;;;17.03;3.70;;;;;;;;;;4943920;29;20186;-74
2021/09/24 00:58:40;;;;;;;13.83;3.17;;;;;;;;;;4950067;28;20206;-74
2021/09/24 01:01:06;;;;;;;12.83;3.60;;;;;;;;;;4946051;28;20222;-74
2021/09/24 01:03:31;;;;;;;13.60;3.10;;;;;;;;;;4947516;28;20202;-75
2021/09/24 01:05:56;;;;;;;13.13;2.93;;;;;;;;;;4947364;28;20293;-75
2021/09/24 01:08:21;;;;;;;10.60;2.70;;;;;;;;;;4946823;28;20535;-76
2021/09/24 01:10:48;;;;;;;7.90;2.43;;;;;;;;;;4950056;28;20187;-75
2021/09/24 01:13:13;;;;;;;14.80;3.40;;;;;;;;;;4949993;28;20183;-75
2021/09/24 01:15:38;;;;;;;11.07;2.83;;;;;;;;;;4946301;28;20963;-74
2021/09/24 01:18:03;;;;;;;10.27;2.23;;;;;;;;;;4946524;28;20267;-74
2021/09/24 01:20:29;;;;;;;16.13;3.53;;;;;;;;;;4944390;28;20741;-74
2021/09/24 01:22:54;;;;;;;10.30;2.50;;;;;;;;;;4949486;28;20221;-75
2021/09/24 01:25:20;;;;;;;10.30;2.80;;;;;;;;;;4948368;28;20270;-74
2021/09/24 01:27:46;;;;;;;10.23;2.20;;;;;;;;;;4944102;28;20726;-75
2021/09/24 01:30:11;;;;;;;16.73;3.30;;;;;;;;;;4947086;28;20442;-75
2021/09/24 01:32:36;;;;;;;11.97;2.80;;;;;;;;;;4949143;28;20183;-74
2021/09/24 01:35:04;;;;;;;10.50;2.30;;;;;;;;;;4947387;28;20297;-74
2021/09/24 01:37:29;;;;;;;8.07;2.13;;;;;;;;;;4948543;28;20179;-74
2021/09/24 01:39:54;;;;;;;18.00;4.43;;;;;;;;;;4947330;28;20975;-73
2021/09/24 01:42:20;;;;;;;6.07;1.90;;;;;;;;;;4949504;28;20608;-75
2021/09/24 01:44:45;;;;;;;8.30;2.40;;;;;;;;;;4938432;28;20219;-73
2021/09/24 01:47:10;;;;;;;14.93;2.57;;;;;;;;;;4944234;28;20222;-73
2021/09/24 01:49:36;;;;;;;7.20;2.00;;;;;;;;;;4947741;28;20274;-74
2021/09/24 01:52:01;;;;;;;8.90;2.80;;;;;;;;;;4946419;28;20678;-74
2021/09/24 01:54:26;;;;;;;9.03;2.70;;;;;;;;;;4947675;28;20199;-72
2021/09/24 01:56:51;;;;;;;11.10;3.10;;;;;;;;;;4948467;28;20230;-73
2021/09/24 01:59:17;;;;;;;9.10;2.00;;;;;;;;;;4945044;28;20219;-73
2021/09/24 02:01:42;;;;;;;12.83;2.77;;;;;;;;;;4947146;28;20211;-75
2021/09/24 02:04:07;;;;;;;9.20;2.20;;;;;;;;;;4949943;28;20203;-74
2021/09/24 02:06:33;;;;;;;10.20;2.30;;;;;;;;;;4954085;28;20195;-73
2021/09/24 02:08:58;;;;;;;5.90;2.13;;;;;;;;;;4946849;28;20187;-74
2021/09/24 02:11:23;;;;;;;10.97;2.60;;;;;;;;;;4948590;28;21125;-73
2021/09/24 02:13:49;;;;;;;11.80;2.37;;;;;;;;;;4952537;28;20203;-73
2021/09/24 02:16:14;;;;;;;15.03;2.27;;;;;;;;;;4954170;28;20187;-73
2021/09/24 02:18:40;;;;;;;14.50;3.50;;;;;;;;;;4949807;28;20207;-74
2021/09/24 02:21:05;;;;;;;8.90;2.90;;;;;;;;;;4950026;28;20195;-74
2021/09/24 02:23:31;;;;;;;10.87;2.20;;;;;;;;;;4953479;28;20270;-73
2021/09/24 02:25:56;;;;;;;16.20;2.77;;;;;;;;;;4969093;28;20195;-74
2021/09/24 02:28:21;;;;;;;7.10;1.93;;;;;;;;;;4952405;28;20187;-73
2021/09/24 02:30:47;;;;;;;7.13;2.03;;;;;;;;;;4952689;28;20198;-73
2021/09/24 02:33:12;;;;;;;13.60;2.90;;;;;;;;;;4953060;28;20175;-73
2021/09/24 02:35:37;;;;;;;9.50;2.07;;;;;;;;;;4953662;28;20266;-72
2021/09/24 02:38:03;;;;;;;12.50;2.13;;;;;;;;;;4950460;28;20249;-74
2021/09/24 02:40:28;;;;;;;12.70;2.70;;;;;;;;;;4953009;28;20269;-73
2021/09/24 02:42:54;;;;;;;12.27;2.10;;;;;;;;;;4954089;28;20258;-73
2021/09/24 02:45:19;;;;;;;9.47;2.07;;;;;;;;;;4953016;28;20211;-74
2021/09/24 02:47:44;;;;;;;6.27;2.10;;;;;;;;;;4953164;28;20917;-74
2021/09/24 02:50:10;;;;;;;9.30;2.37;;;;;;;;;;4951882;28;20179;-75
2021/09/24 02:52:36;;;;;;;10.60;2.27;;;;;;;;;;4967940;28;20194;-72
2021/09/24 02:55:01;;;;;;;10.90;3.10;;;;;;;;;;4952125;28;20460;-74
2021/09/24 02:57:26;;;;;;;10.27;2.30;;;;;;;;;;4948959;28;20183;-73
2021/09/24 03:00:02;;;;;;;14.20;2.60;;;;;;;;;;4952520;29;20207;-74
2021/09/24 03:02:28;;;;;;;14.50;3.03;;;;;;;;;;4945406;28;20231;-71
2021/09/24 03:04:53;;;;;;;16.60;2.90;;;;;;;;;;4952122;28;20543;-73
2021/09/24 03:07:18;;;;;;;10.83;2.40;;;;;;;;;;4952213;28;20187;-73
2021/09/24 03:09:44;;;;;;;10.47;2.60;;;;;;;;;;4947534;28;20175;-73
2021/09/24 03:12:09;;;;;;;12.50;3.10;;;;;;;;;;4951969;28;20187;-73
2021/09/24 03:14:35;;;;;;;13.17;3.03;;;;;;;;;;4954759;28;20214;-74
2021/09/24 03:17:00;;;;;;;6.33;2.23;;;;;;;;;;4950366;28;20674;-73
2021/09/24 03:19:25;;;;;;;10.60;2.27;;;;;;;;;;4954446;28;20225;-74
2021/09/24 03:21:53;;;;;;;18.50;2.47;;;;;;;;;;4950630;28;20172;-73
2021/09/24 03:24:19;;;;;;;17.50;2.67;;;;;;;;;;4950835;28;20203;-73
2021/09/24 03:26:45;;;;;;;10.90;3.27;;;;;;;;;;4950441;28;20489;-72
2021/09/24 03:29:10;;;;;;;9.83;2.30;;;;;;;;;;4952737;29;20238;-74
2021/09/24 03:31:39;;;;;;;13.50;2.43;;;;;;;;;;4951652;28;20446;-73
2021/09/24 03:34:05;;;;;;;16.97;2.60;;;;;;;;;;4950242;28;20559;-74
2021/09/24 03:36:30;;;;;;;7.80;2.33;;;;;;;;;;4952244;28;20445;-73
2021/09/24 03:38:55;;;;;;;11.13;2.60;;;;;;;;;;4952416;28;20265;-73
2021/09/24 03:41:20;;;;;;;8.77;2.17;;;;;;;;;;4949506;28;20179;-72
2021/09/24 03:43:46;;;;;;;13.53;2.83;;;;;;;;;;4954161;28;20726;-73
2021/09/24 03:46:12;;;;;;;10.10;2.67;;;;;;;;;;4951042;28;20172;-74
2021/09/24 03:48:37;;;;;;;10.10;2.47;;;;;;;;;;4951407;28;20265;-74
2021/09/24 03:51:03;;;;;;;11.03;2.10;;;;;;;;;;4949222;28;20180;-73
2021/09/24 03:53:28;;;;;;;9.70;2.70;;;;;;;;;;4947992;28;20186;-74
2021/09/24 03:55:53;;;;;;;8.50;2.60;;;;;;;;;;4950735;28;20175;-73
2021/09/24 03:58:22;;;;;;;13.63;2.10;;;;;;;;;;4950374;28;21160;-73
2021/09/24 04:00:48;;;;;;;12.80;2.30;;;;;;;;;;4950639;28;20183;-73
2021/09/24 04:03:13;;;;;;;15.70;3.07;;;;;;;;;;4952157;28;20442;-74
2021/09/24 04:05:38;;;;;;;15.23;2.97;;;;;;;;;;4951376;28;20205;-72
2021/09/24 04:08:04;;;;;;;10.20;2.70;;;;;;;;;;4950539;28;20183;-72
2021/09/24 04:10:29;;;;;;;16.27;2.60;;;;;;;;;;4949759;28;20191;-73
2021/09/24 04:12:57;;;;;;;14.10;3.27;;;;;;;;;;4951998;28;20191;-73
2021/09/24 04:15:22;;;;;;;16.43;3.80;;;;;;;;;;4951411;28;20209;-73
2021/09/24 04:17:48;;;;;;;7.27;2.30;;;;;;;;;;4945595;28;20438;-72
2021/09/24 04:20:13;;;;;;;13.10;2.90;;;;;;;;;;4949854;28;20306;-72
2021/09/24 04:22:38;;;;;;;14.33;3.20;;;;;;;;;;4948857;28;20258;-72
2021/09/24 04:25:04;;;;;;;8.30;2.47;;;;;;;;;;4950672;28;20219;-74
2021/09/24 04:27:30;;;;;;;13.10;3.10;;;;;;;;;;4949597;28;20576;-73
2021/09/24 04:29:55;;;;;;;14.70;2.90;;;;;;;;;;4946694;28;20194;-73
2021/09/24 04:32:20;;;;;;;11.03;2.90;;;;;;;;;;4948523;29;20283;-74
2021/09/24 04:34:46;;;;;;;14.93;3.40;;;;;;;;;;4946224;28;20269;-73
2021/09/24 04:37:11;;;;;;;17.60;3.07;;;;;;;;;;4945123;28;20215;-73
2021/09/24 04:39:36;;;;;;;12.30;3.57;;;;;;;;;;4948728;28;20210;-74
2021/09/24 04:42:02;;;;;;;12.53;3.60;;;;;;;;;;4946185;28;20207;-74
2021/09/24 04:44:27;;;;;;;13.50;2.97;;;;;;;;;;4952887;28;20211;-74
2021/09/24 04:46:52;;;;;;;6.83;2.50;;;;;;;;;;4953397;28;20222;-74
2021/09/24 04:49:18;;;;;;;7.83;2.83;;;;;;;;;;4952557;28;20179;-73
2021/09/24 04:51:44;;;;;;;11.13;2.90;;;;;;;;;;4954130;28;20651;-73
2021/09/24 04:54:09;;;;;;;10.00;2.50;;;;;;;;;;4951767;28;20207;-74
2021/09/24 04:56:35;;;;;;;12.50;3.17;;;;;;;;;;4950317;28;20426;-73
2021/09/24 04:59:00;;;;;;;14.93;2.77;;;;;;;;;;4947078;28;20294;-73
2021/09/24 05:01:25;;;;;;;14.00;2.97;;;;;;;;;;4949705;29;20710;-75
2021/09/24 05:03:54;;;;;;;12.50;2.53;;;;;;;;;;4948965;28;20289;-72
2021/09/24 05:06:19;;;;;;;8.30;2.07;;;;;;;;;;4950347;28;20214;-73
2021/09/24 05:08:44;;;;;;;6.47;1.90;;;;;;;;;;4948519;28;20442;-71
2021/09/24 05:11:10;;;;;;;9.00;2.40;;;;;;;;;;4947567;29;20687;-74
2021/09/24 05:13:35;;;;;;;7.50;2.00;;;;;;;;;;4953494;28;20217;-74
2021/09/24 05:16:00;;;;;;;10.07;2.10;;;;;;;;;;4951516;28;20202;-77
2021/09/24 05:18:25;;;;;;;10.33;2.53;;;;;;;;;;4948617;28;20238;-75
2021/09/24 05:20:53;;;;;;;8.43;2.10;;;;;;;;;;4948458;28;20224;-74
2021/09/24 05:23:19;;;;;;;8.80;2.20;;;;;;;;;;4950795;28;20190;-76
2021/09/24 05:25:44;;;;;;;7.50;2.20;;;;;;;;;;4952383;28;20430;-73
2021/09/24 05:28:09;;;;;;;8.50;2.77;;;;;;;;;;4937584;28;20185;-73
2021/09/24 05:30:35;;;;;;;8.10;1.80;;;;;;;;;;4948292;28;20207;-74
2021/09/24 05:33:00;;;;;;;11.13;3.17;;;;;;;;;;4941705;28;20202;-72
2021/09/24 05:35:26;;;;;;;7.83;2.00;;;;;;;;;;4944740;28;20218;-74
2021/09/24 05:37:51;;;;;;;10.20;2.27;;;;;;;;;;4939385;28;20274;-75
2021/09/24 05:40:16;;;;;;;8.93;2.03;;;;;;;;;;4945289;28;20746;-76
2021/09/24 05:42:42;;;;;;;9.20;2.57;;;;;;;;;;4945503;28;20190;-73
2021/09/24 05:45:11;;;;;;;10.17;2.00;;;;;;;;;;4943482;28;20207;-73
2021/09/24 05:47:37;;;;;;;6.83;2.00;;;;;;;;;;4950517;28;20278;-73
2021/09/24 05:50:05;;;;;;;5.20;1.77;;;;;;;;;;4954509;28;20497;-73
2021/09/24 05:52:30;;;;;;;8.53;1.90;;;;;;;;;;4953077;28;20442;-73
2021/09/24 05:54:56;;;;;;;9.93;2.57;;;;;;;;;;4950690;28;20461;-74
2021/09/24 05:57:21;;;;;;;8.53;1.93;;;;;;;;;;4955624;28;20187;-74
2021/09/24 05:59:46;;;;;;;14.33;2.30;;;;;;;;;;4954863;28;20570;-73
2021/09/24 06:02:11;;;;;;;6.30;1.87;;;;;;;;;;4953774;29;20210;-73
2021/09/24 06:04:37;;;;;;;7.90;2.20;;;;;;;;;;4952895;28;20703;-73
2021/09/24 06:07:02;;;;;;;6.30;1.83;;;;;;;;;;4950643;28;20191;-74
2021/09/24 06:09:28;;;;;;;8.20;1.80;;;;;;;;;;4954981;28;20193;-74
2021/09/24 06:11:53;;;;;;;5.90;1.97;;;;;;;;;;4953264;28;20179;-75
2021/09/24 06:14:18;;;;;;;6.23;1.60;;;;;;;;;;4954688;28;20853;-75
2021/09/24 06:16:43;;;;;;;8.10;2.60;;;;;;;;;;4954369;28;20237;-74
2021/09/24 06:19:10;;;;;;;5.70;1.70;;;;;;;;;;4955254;28;20202;-73
2021/09/24 06:21:36;;;;;;;9.33;2.63;;;;;;;;;;4943079;28;20183;-74
2021/09/24 06:24:02;;;;;;;8.07;2.33;;;;;;;;;;4946483;28;21168;-73
2021/09/24 06:26:27;;;;;;;9.27;2.23;;;;;;;;;;4948453;28;20434;-73
2021/09/24 06:28:52;;;;;;;5.70;2.27;;;;;;;;;;4947093;29;20188;-74
2021/09/24 06:31:18;;;;;;;8.10;2.10;;;;;;;;;;4951533;28;20225;-73
2021/09/24 06:33:43;;;;;;;6.00;1.70;;;;;;;;;;4949571;28;20194;-75
2021/09/24 06:36:08;;;;;;;8.20;2.43;;;;;;;;;;4949715;29;20187;-74
2021/09/24 06:38:34;;;;;;;6.93;2.30;;;;;;;;;;4946298;28;20730;-74
2021/09/24 06:40:59;;;;;;;7.50;2.67;;;;;;;;;;4948794;28;21172;-74
2021/09/24 06:43:24;;;;;;;8.60;2.70;;;;;;;;;;4952986;28;20214;-73
2021/09/24 06:45:50;;;;;;;12.33;2.80;;;;;;;;;;4942637;28;20187;-72
2021/09/24 06:48:15;;;;;;;9.20;2.23;;;;;;;;;;4949532;29;20191;-75
2021/09/24 06:50:40;;;;;;;7.43;2.20;;;;;;;;;;4952570;28;20724;-76
2021/09/24 06:53:06;;;;;;;7.93;2.87;;;;;;;;;;4947836;28;20222;-76
2021/09/24 06:55:34;;;;;;;11.20;3.20;;;;;;;;;;4950012;28;20277;-76
2021/09/24 06:57:59;;;;;;;11.60;2.60;;;;;;;;;;4948258;28;20238;-73
2021/09/24 07:00:25;;;;;;;12.33;2.03;;;;;;;;;;4950072;28;20466;-75
2021/09/24 07:02:50;;;;;;;7.20;2.30;;;;;;;;;;4950407;29;20256;-75
2021/09/24 07:05:15;;;;;;;8.13;2.40;;;;;;;;;;4945758;28;20671;-73
2021/09/24 07:07:41;;;;;;;7.33;1.87;;;;;;;;;;4950522;28;20679;-75
2021/09/24 07:10:07;;;;;;;7.90;2.30;;;;;;;;;;4952508;28;20184;-74
2021/09/24 07:12:32;;;;;;;6.77;2.20;;;;;;;;;;4952433;28;20656;-74
2021/09/24 07:14:57;;;;;;;12.03;2.57;;;;;;;;;;4950556;28;20645;-74
2021/09/24 07:17:22;;;;;;;9.00;2.87;;;;;;;;;;4951509;28;20188;-75
2021/09/24 07:19:50;;;;;;;8.30;2.80;;;;;;;;;;4952559;28;20262;-75
2021/09/24 07:22:16;;;;;;;16.73;3.20;;;;;;;;;;4953938;29;20187;-77
2021/09/24 07:24:41;;;;;;;13.63;3.03;;;;;;;;;;4951098;28;20534;-75
2021/09/24 07:27:07;;;;;;;8.30;2.63;;;;;;;;;;4950146;28;20623;-76
2021/09/24 07:29:32;;;;;;;13.83;4.30;;;;;;;;;;4951353;28;20210;-74
2021/09/24 07:31:58;;;;;;;19.53;4.47;;;;;;;;;;4949718;28;20179;-76
2021/09/24 07:34:24;;;;;;;9.90;3.17;;;;;;;;;;4952812;28;20214;-77
2021/09/24 07:36:49;;;;;;;12.23;3.47;;;;;;;;;;4952036;28;20434;-75
2021/09/24 07:39:14;;;;;;;15.43;3.40;;;;;;;;;;4951147;28;20308;-76
2021/09/24 07:41:40;;;;;;;13.63;3.53;;;;;;;;;;4952098;28;20658;-77
2021/09/24 07:44:05;;;;;;;10.43;3.23;;;;;;;;;;4950250;28;20214;-75
2021/09/24 07:46:31;;;;;;;7.70;3.43;;;;;;;;;;4952388;28;20168;-73
2021/09/24 07:48:57;;;;;;;13.30;3.37;;;;;;;;;;4949175;28;20267;-73
2021/09/24 07:51:22;;;;;;;23.43;4.83;;;;;;;;;;4947317;28;20521;-75
2021/09/24 07:53:50;;;;;;;11.13;3.80;;;;;;;;;;4950425;28;20203;-74
2021/09/24 07:56:16;;;;;;;9.00;3.67;;;;;;;;;;4951567;29;20652;-76
2021/09/24 07:58:41;;;;;;;10.23;4.07;;;;;;;;;;4950559;29;20469;-76
2021/09/24 08:01:07;;;;;;;13.67;4.30;;;;;;;;;;4948181;28;20215;-73
2021/09/24 08:03:33;;;;;;;11.77;3.70;;;;;;;;;;4949528;28;20210;-73
2021/09/24 08:05:59;;;;;;;10.83;3.30;;;;;;;;;;4951385;28;20466;-75
2021/09/24 08:08:24;;;;;;;12.63;3.53;;;;;;;;;;4949754;28;20534;-74
2021/09/24 08:10:49;;;;;;;14.43;3.90;;;;;;;;;;4949150;28;20182;-75
2021/09/24 08:13:15;;;;;;;13.90;3.47;;;;;;;;;;4949717;28;20203;-72
2021/09/24 08:15:43;;;;;;;10.60;3.80;;;;;;;;;;4951717;28;20238;-73
2021/09/24 08:18:12;;;;;;;13.03;3.67;;;;;;;;;;4947846;29;20180;-74
2021/09/24 08:20:37;;;;;;;14.23;3.33;;;;;;;;;;4943643;28;20474;-73
2021/09/24 08:23:03;;;;;;;11.13;4.00;;;;;;;;;;4943641;28;20431;-73
2021/09/24 08:25:28;;;;;;;8.90;3.93;;;;;;;;;;4949113;28;20237;-73
2021/09/24 08:27:54;;;;;;;14.30;4.03;;;;;;;;;;4945437;28;20202;-71
2021/09/24 08:30:22;;;;;;;11.10;3.80;;;;;;;;;;4946201;28;20187;-73
2021/09/24 08:32:47;;;;;;;14.03;2.93;;;;;;;;;;4949113;28;20178;-74
2021/09/24 08:35:13;;;;;;;13.10;3.83;;;;;;;;;;4947369;28;20449;-72
2021/09/24 08:37:39;;;;;;;12.60;4.10;;;;;;;;;;4952562;28;20565;-74
2021/09/24 08:40:05;;;;;;;13.10;3.77;;;;;;;;;;4948687;28;20199;-74
2021/09/24 08:42:30;;;;;;;12.87;3.73;;;;;;;;;;4951410;28;20194;-75
2021/09/24 08:44:56;;;;;;;11.17;3.57;;;;;;;;;;4950558;29;20462;-74
2021/09/24 08:47:21;;;;;;;16.93;4.70;;;;;;;;;;4949664;28;20636;-74
2021/09/24 08:49:46;;;;;;;14.07;3.87;;;;;;;;;;4945612;28;20179;-75
2021/09/24 08:52:12;;;;;;;12.97;4.13;;;;;;;;;;4946138;28;20182;-75
2021/09/24 08:54:38;;;;;;;12.57;4.00;;;;;;;;;;4949568;28;20195;-72
2021/09/24 08:57:03;;;;;;;12.03;4.07;;;;;;;;;;4949360;29;20534;-73
2021/09/24 08:59:29;;;;;;;11.73;4.60;;;;;;;;;;4945556;28;20203;-72
2021/09/24 09:01:58;;;;;;;17.03;4.70;;;;;;;;;;4943610;28;20522;-74
2021/09/24 09:04:34;;;;;;;10.50;4.13;;;;;;;;;;4933108;28;20672;-73
2021/09/24 09:07:07;;;;;;;13.63;4.10;;;;;;;;;;4935241;28;20461;-72
2021/09/24 09:09:36;;;;;;;10.80;3.83;;;;;;;;;;4937916;28;20482;-72
2021/09/24 09:12:08;;;;;;;10.47;4.17;;;;;;;;;;4939388;28;20913;-73
2021/09/24 09:14:34;;;;;;;12.03;3.83;;;;;;;;;;4941540;28;20458;-75
2021/09/24 09:16:59;;;;;;;8.80;3.77;;;;;;;;;;4941762;28;20489;-73
2021/09/24 09:19:24;;;;;;;9.63;3.67;;;;;;;;;;4940646;28;20257;-73
2021/09/24 09:21:49;;;;;;;14.17;4.37;;;;;;;;;;4948436;28;20234;-72
2021/09/24 09:24:19;;;;;;;9.70;4.23;;;;;;;;;;4950999;28;20195;-74
2021/09/24 09:26:45;;;;;;;9.30;3.90;;;;;;;;;;4946421;28;20262;-71
2021/09/24 09:29:11;;;;;;;11.53;4.30;;;;;;;;;;4940658;28;20462;-72
2021/09/24 09:31:37;;;;;;;14.70;4.60;;;;;;;;;;4950422;28;20431;-72
2021/09/24 09:34:07;;;;;;;10.87;4.67;;;;;;;;;;4949624;28;20219;-72
2021/09/24 09:36:37;;;;;;;10.60;4.80;;;;;;;;;;4953085;28;20481;-72
2021/09/24 09:39:09;;;;;;;12.17;4.80;;;;;;;;;;4952033;28;20545;-73
2021/09/24 09:41:34;;;;;;;11.73;4.37;;;;;;;;;;4950439;29;20422;-73
2021/09/24 09:44:00;;;;;;;12.40;5.60;;;;;;;;;;4947715;28;20497;-74
2021/09/24 09:46:34;;;;;;;13.80;4.80;;;;;;;;;;4951612;28;20257;-72
2021/09/24 09:49:02;;;;;;;17.70;5.10;;;;;;;;;;4952322;28;20824;-72
2021/09/24 09:51:28;;;;;;;10.80;4.70;;;;;;;;;;4949821;28;20466;-75
2021/09/24 09:53:53;;;;;;;9.53;4.33;;;;;;;;;;4948293;28;20512;-72
2021/09/24 09:56:19;;;;;;;11.10;4.93;;;;;;;;;;4949135;28;20969;-73
2021/09/24 09:58:44;;;;;;;11.30;5.20;;;;;;;;;;4946178;28;20336;-72
2021/09/24 10:01:11;;;;;;;11.63;4.63;;;;;;;;;;4945423;28;20183;-72
2021/09/24 10:03:37;;;;;;;11.80;5.37;;;;;;;;;;4949349;28;20211;-72
2021/09/24 10:06:04;;;;;;;11.10;4.50;;;;;;;;;;4947988;28;21009;-72
2021/09/24 10:08:33;;;;;;;11.07;5.63;;;;;;;;;;4947407;28;20426;-73
2021/09/24 10:11:13;;;;;;;20.83;5.87;;;;;;;;;;4951862;28;20422;-75
2021/09/24 10:13:50;;;;;;;11.00;5.17;;;;;;;;;;4949597;28;20982;-74
2021/09/24 10:16:16;;;;;;;16.13;5.10;;;;;;;;;;4952991;28;20982;-73
2021/09/24 10:18:41;;;;;;;15.93;5.60;;;;;;;;;;4952664;28;20427;-72
2021/09/24 10:21:07;;;;;;;9.23;4.33;;;;;;;;;;4953385;28;20445;-71
2021/09/24 10:23:32;;;;;;;14.50;5.50;;;;;;;;;;4952669;28;20620;-72
2021/09/24 10:25:59;;;;;;;11.07;5.40;;;;;;;;;;4952163;28;20193;-72
2021/09/24 10:28:27;;;;;;;19.03;4.90;;;;;;;;;;4947091;28;20184;-73
2021/09/24 10:30:53;;;;;;;13.10;5.13;;;;;;;;;;4948611;28;21370;-73
2021/09/24 10:33:18;;;;;;;10.63;5.33;;;;;;;;;;4946715;28;20441;-72
2021/09/24 10:35:46;;;;;;;12.63;5.43;;;;;;;;;;4943387;28;20554;-72
2021/09/24 10:38:12;;;;;;;13.00;4.47;;;;;;;;;;4949729;28;20651;-72
2021/09/24 10:40:51;;;;;;;11.33;4.40;;;;;;;;;;4946977;28;20466;-71
2021/09/24 10:43:16;;;;;;;11.07;4.53;;;;;;;;;;4948628;28;20183;-72
2021/09/24 10:45:42;;;;;;;11.77;3.97;;;;;;;;;;4946787;28;20470;-72
2021/09/24 10:48:08;;;;;;;9.60;4.13;;;;;;;;;;4949285;28;20211;-71
2021/09/24 10:50:34;;;;;;;14.60;4.67;;;;;;;;;;4945912;28;20438;-72
2021/09/24 10:53:17;;;;;;;13.10;4.90;;;;;;;;;;4947818;28;20218;-73
2021/09/24 10:55:52;;;;;;;9.03;3.77;;;;;;;;;;4948893;28;20206;-73
2021/09/24 10:58:26;;;;;;;14.70;4.00;;;;;;;;;;4947032;28;20449;-73
2021/09/24 11:00:52;;;;;;;11.80;4.47;;;;;;;;;;4948161;28;20572;-73
2021/09/24 11:03:19;;;;;;;9.03;3.10;;;;;;;;;;4948124;28;20442;-74
2021/09/24 11:05:56;;;;;;;9.67;3.93;;;;;;;;;;4949820;28;20427;-72
2021/09/24 11:08:36;;;;;;;9.07;3.33;;;;;;;;;;4945609;28;20465;-72
2021/09/24 11:11:02;;;;;;;8.73;3.60;;;;;;;;;;4945662;29;20980;-71
2021/09/24 11:13:28;;;;;;;9.50;3.43;;;;;;;;;;4946749;28;20438;-71
2021/09/24 11:16:03;;;;;;;8.00;3.40;;;;;;;;;;4945258;28;20216;-71
2021/09/24 11:18:49;;;;;;;9.87;3.93;;;;;;;;;;4947079;28;20261;-73
2021/09/24 11:21:16;;;;;;;9.00;3.40;;;;;;;;;;4948705;28;20862;-70
2021/09/24 11:23:42;;;;;;;9.33;3.93;;;;;;;;;;4948687;28;20458;-72
2021/09/24 11:26:08;;;;;;;13.60;3.97;;;;;;;;;;4945297;28;21026;-71
2021/09/24 11:28:33;;;;;;;11.00;3.50;;;;;;;;;;4944762;28;20565;-71
2021/09/24 11:30:59;;;;;;;8.47;3.13;;;;;;;;;;4951141;28;20434;-72
2021/09/24 11:33:43;;;;;;;11.60;3.60;;;;;;;;;;4946034;28;20179;-74
2021/09/24 11:36:08;;;;;;;9.57;3.30;;;;;;;;;;4947253;28;20748;-72
2021/09/24 11:38:33;;;;;;;7.30;3.00;;;;;;;;;;4948453;28;20522;-71
2021/09/24 11:40:59;;;;;;;4.90;2.87;;;;;;;;;;4946740;28;20206;-74
2021/09/24 11:43:26;;;;;;;9.40;3.83;;;;;;;;;;4946390;28;20183;-74
2021/09/24 11:45:51;;;;;;;9.80;3.00;;;;;;;;;;4951109;28;20207;-72
2021/09/24 11:48:25;;;;;;;7.40;3.27;;;;;;;;;;4945448;28;20538;-73
2021/09/24 11:50:50;;;;;;;6.17;3.30;;;;;;;;;;4947966;28;20179;-72
2021/09/24 11:53:16;;;;;;;14.50;3.33;;;;;;;;;;4943574;28;24188;-72
2021/09/24 11:55:45;;;;;;;9.97;3.77;;;;;;;;;;4947630;28;20203;-73
2021/09/24 11:58:26;;;;;;;11.37;4.40;;;;;;;;;;4947669;28;20605;-74
2021/09/24 12:00:54;;;;;;;6.83;3.03;;;;;;;;;;4947860;28;20458;-73
2021/09/24 12:03:23;;;;;;;7.90;3.90;;;;;;;;;;4948095;28;21248;-72
2021/09/24 12:05:57;;;;;;;7.67;3.60;;;;;;;;;;4947572;28;20435;-73
2021/09/24 12:08:33;;;;;;;8.13;3.90;;;;;;;;;;4946661;28;20968;-72
2021/09/24 12:11:03;;;;;;;8.90;3.73;;;;;;;;;;4949792;28;20430;-73
2021/09/24 12:13:47;;;;;;;3.67;2.57;;;;;;;;;;4950307;28;20481;-70
2021/09/24 12:16:17;;;;;;;8.67;2.90;;;;;;;;;;4939962;28;20604;-72
2021/09/24 12:18:44;;;;;;;4.17;3.30;;;;;;;;;;4950032;28;20440;-74
2021/09/24 12:21:09;;;;;;;6.70;3.07;;;;;;;;;;4950002;28;20473;-74
2021/09/24 12:23:35;;;;;;;5.33;2.97;;;;;;;;;;4949974;28;20979;-72
2021/09/24 12:26:01;;;;;;;6.57;3.57;;;;;;;;;;4950395;28;20187;-74
2021/09/24 12:28:27;;;;;;;8.07;2.90;;;;;;;;;;4935808;28;20250;-71
2021/09/24 12:30:52;;;;;;;6.93;3.10;;;;;;;;;;4938804;28;20466;-71
2021/09/24 12:33:22;;;;;;;8.90;3.40;;;;;;;;;;4946036;28;20189;-72
2021/09/24 12:35:56;;;;;;;7.50;2.60;;;;;;;;;;4944717;28;20186;-73
2021/09/24 12:38:25;;;;;;;8.13;3.83;;;;;;;;;;4946664;28;20482;-72
2021/09/24 12:41:07;;;;;;;7.93;3.50;;;;;;;;;;4944602;28;21053;-73
2021/09/24 12:43:33;;;;;;;7.17;3.10;;;;;;;;;;4946939;28;20423;-71
2021/09/24 12:45:58;;;;;;;6.13;3.40;;;;;;;;;;4951630;28;20419;-74
2021/09/24 12:48:23;;;;;;;8.53;3.00;;;;;;;;;;4951504;28;20186;-72
2021/09/24 12:50:50;;;;;;;4.83;2.20;;;;;;;;;;4947714;28;20179;-73
2021/09/24 12:53:18;;;;;;;9.73;3.60;;;;;;;;;;4949103;28;20187;-74
2021/09/24 12:55:43;;;;;;;8.20;3.47;;;;;;;;;;4946134;28;20609;-73
2021/09/24 12:58:10;;;;;;;8.83;3.67;;;;;;;;;;4945032;28;20557;-72
2021/09/24 13:00:35;;;;;;;11.60;3.00;;;;;;;;;;4947780;28;20323;-71
2021/09/24 13:03:01;;;;;;;4.87;2.73;;;;;;;;;;4948275;28;20929;-71
2021/09/24 13:05:27;;;;;;;8.97;2.53;;;;;;;;;;4943041;28;20203;-72
2021/09/24 13:07:53;;;;;;;4.73;3.20;;;;;;;;;;4948037;28;20179;-70
2021/09/24 13:10:18;;;;;;;7.80;3.00;;;;;;;;;;4949218;28;20431;-72
2021/09/24 13:12:44;;;;;;;10.00;3.30;;;;;;;;;;4945346;28;20435;-71
2021/09/24 13:15:11;;;;;;;5.77;2.70;;;;;;;;;;4947708;28;20820;-70
2021/09/24 13:17:37;;;;;;;8.83;3.17;;;;;;;;;;4948908;28;20435;-70
2021/09/24 13:20:03;;;;;;;5.50;2.47;;;;;;;;;;4946671;28;20473;-71
2021/09/24 13:22:28;;;;;;;4.93;2.83;;;;;;;;;;4949274;28;20183;-70
2021/09/24 13:24:53;;;;;;;6.17;2.63;;;;;;;;;;4947045;28;20489;-68
2021/09/24 13:27:19;;;;;;;8.57;3.20;;;;;;;;;;4948292;28;20197;-69
2021/09/24 13:29:47;;;;;;;6.97;3.07;;;;;;;;;;4947851;28;20544;-69
2021/09/24 13:32:14;;;;;;;6.93;2.40;;;;;;;;;;4949230;28;20234;-69
2021/09/24 13:34:40;;;;;;;8.37;3.20;;;;;;;;;;4948463;28;20533;-71
2021/09/24 13:37:05;;;;;;;5.20;2.77;;;;;;;;;;4945317;28;21018;-69
2021/09/24 13:39:30;;;;;;;10.53;2.63;;;;;;;;;;4947072;28;20199;-69
2021/09/24 13:41:56;;;;;;;5.33;2.70;;;;;;;;;;4948461;29;20182;-69
2021/09/24 13:44:22;;;;;;;8.07;2.57;;;;;;;;;;4946888;28;20330;-72
2021/09/24 13:46:47;;;;;;;3.97;1.90;;;;;;;;;;4945944;28;20183;-73
2021/09/24 13:49:12;;;;;;;6.87;2.47;;;;;;;;;;4946883;28;20450;-69
2021/09/24 13:51:38;;;;;;;4.03;2.57;;;;;;;;;;4948411;28;20179;-69
2021/09/24 13:54:03;;;;;;;6.03;1.80;;;;;;;;;;4948605;28;20214;-72
2021/09/24 13:56:28;;;;;;;5.40;2.50;;;;;;;;;;4947241;28;20210;-69
2021/09/24 13:58:54;;;;;;;7.20;2.23;;;;;;;;;;4946887;29;20183;-69
2021/09/24 14:01:19;;;;;;;4.57;2.70;;;;;;;;;;4946313;28;20215;-69
2021/09/24 14:03:44;;;;;;;5.50;2.40;;;;;;;;;;4947145;28;20214;-69
2021/09/24 14:06:09;;;;;;;7.53;2.43;;;;;;;;;;4947747;28;20195;-70
2021/09/24 14:08:36;;;;;;;7.93;2.80;;;;;;;;;;4948216;28;20182;-71
2021/09/24 14:11:01;;;;;;;5.20;2.70;;;;;;;;;;4949756;29;20187;-69
2021/09/24 14:13:26;;;;;;;3.53;2.50;;;;;;;;;;4951116;28;20804;-68
2021/09/24 14:15:54;;;;;;;4.60;2.37;;;;;;;;;;4952577;28;20187;-70
2021/09/24 14:18:19;;;;;;;5.17;2.37;;;;;;;;;;4950594;28;20194;-70
2021/09/24 14:20:45;;;;;;;7.80;2.77;;;;;;;;;;4952096;29;20463;-69
2021/09/24 14:23:10;;;;;;;6.77;2.60;;;;;;;;;;4952082;28;20187;-70
2021/09/24 14:25:36;;;;;;;4.70;2.67;;;;;;;;;;4950252;28;20238;-69
2021/09/24 14:28:02;;;;;;;5.57;3.40;;;;;;;;;;4948792;28;20195;-70
2021/09/24 14:30:27;;;;;;;8.00;2.63;;;;;;;;;;4949112;28;20195;-70